sensor_id;sensor_type;location;lat;lon;timestamp;P1;durP1;ratioP1;P2;durP2;ratioP2
62696;SDS011;48761;42.680;23.312;2022-10-26T00:01:06;10.32;;;5.53;;
62696;SDS011;48761;42.680;23.312;2022-10-26T00:03:37;12.32;;;5.47;;
62696;SDS011;48761;42.680;23.312;2022-10-26T00:06:04;13.82;;;5.45;;
62696;SDS011;48761;42.680;23.312;2022-10-26T00:08:35;15.07;;;6.13;;
62696;SDS011;48761;42.680;23.312;2022-10-26T00:11:02;14.05;;;6.20;;
62696;SDS011;48761;42.680;23.312;2022-10-26T00:13:28;14.02;;;5.82;;
62696;SDS011;48761;42.680;23.312;2022-10-26T00:15:54;12.35;;;5.57;;
62696;SDS011;48761;42.680;23.312;2022-10-26T00:18:20;16.73;;;6.25;;
62696;SDS011;48761;42.680;23.312;2022-10-26T00:20:46;11.98;;;5.13;;
62696;SDS011;48761;42.680;23.312;2022-10-26T00:23:14;16.75;;;5.88;;
62696;SDS011;48761;42.680;23.312;2022-10-26T00:25:40;16.40;;;6.15;;
62696;SDS011;48761;42.680;23.312;2022-10-26T00:28:05;13.32;;;6.20;;
62696;SDS011;48761;42.680;23.312;2022-10-26T00:30:31;12.05;;;5.38;;
62696;SDS011;48761;42.680;23.312;2022-10-26T00:32:57;15.23;;;5.68;;
62696;SDS011;48761;42.680;23.312;2022-10-26T00:35:23;11.98;;;5.88;;
62696;SDS011;48761;42.680;23.312;2022-10-26T00:37:53;10.27;;;5.80;;
62696;SDS011;48761;42.680;23.312;2022-10-26T00:40:19;12.45;;;6.05;;
62696;SDS011;48761;42.680;23.312;2022-10-26T00:42:45;13.02;;;5.95;;
62696;SDS011;48761;42.680;23.312;2022-10-26T00:47:44;14.73;;;5.70;;
62696;SDS011;48761;42.680;23.312;2022-10-26T00:50:21;14.05;;;5.90;;
62696;SDS011;48761;42.680;23.312;2022-10-26T00:52:52;14.55;;;6.10;;
62696;SDS011;48761;42.680;23.312;2022-10-26T00:55:20;12.35;;;6.18;;
62696;SDS011;48761;42.680;23.312;2022-10-26T00:57:51;13.85;;;5.90;;
62696;SDS011;48761;42.680;23.312;2022-10-26T01:00:19;15.18;;;5.93;;
62696;SDS011;48761;42.680;23.312;2022-10-26T01:02:46;17.20;;;6.43;;
62696;SDS011;48761;42.680;23.312;2022-10-26T01:05:15;17.35;;;6.28;;
62696;SDS011;48761;42.680;23.312;2022-10-26T01:07:42;15.43;;;6.53;;
62696;SDS011;48761;42.680;23.312;2022-10-26T01:10:09;12.00;;;6.35;;
62696;SDS011;48761;42.680;23.312;2022-10-26T01:12:35;13.65;;;6.55;;
62696;SDS011;48761;42.680;23.312;2022-10-26T01:15:02;14.50;;;6.43;;
62696;SDS011;48761;42.680;23.312;2022-10-26T01:17:33;17.02;;;6.38;;
62696;SDS011;48761;42.680;23.312;2022-10-26T01:20:24;17.10;;;5.90;;
62696;SDS011;48761;42.680;23.312;2022-10-26T01:23:07;15.35;;;5.85;;
62696;SDS011;48761;42.680;23.312;2022-10-26T01:31:19;13.05;;;6.22;;
62696;SDS011;48761;42.680;23.312;2022-10-26T01:34:00;17.95;;;6.65;;
62696;SDS011;48761;42.680;23.312;2022-10-26T01:36:37;16.45;;;6.50;;
62696;SDS011;48761;42.680;23.312;2022-10-26T01:39:14;13.82;;;6.47;;
62696;SDS011;48761;42.680;23.312;2022-10-26T01:41:50;14.15;;;6.82;;
62696;SDS011;48761;42.680;23.312;2022-10-26T01:47:10;13.48;;;6.47;;
62696;SDS011;48761;42.680;23.312;2022-10-26T01:49:49;16.33;;;7.13;;
62696;SDS011;48761;42.680;23.312;2022-10-26T01:52:18;12.20;;;5.80;;
62696;SDS011;48761;42.680;23.312;2022-10-26T01:54:44;12.13;;;5.97;;
62696;SDS011;48761;42.680;23.312;2022-10-26T01:57:11;13.90;;;6.03;;
62696;SDS011;48761;42.680;23.312;2022-10-26T01:59:56;12.77;;;6.05;;
62696;SDS011;48761;42.680;23.312;2022-10-26T02:05:24;14.55;;;6.22;;
62696;SDS011;48761;42.680;23.312;2022-10-26T02:21:27;9.90;;;5.65;;
62696;SDS011;48761;42.680;23.312;2022-10-26T02:24:08;15.45;;;5.80;;
62696;SDS011;48761;42.680;23.312;2022-10-26T02:26:37;12.10;;;5.57;;
62696;SDS011;48761;42.680;23.312;2022-10-26T02:29:08;14.18;;;5.57;;
62696;SDS011;48761;42.680;23.312;2022-10-26T02:31:37;15.05;;;5.90;;
62696;SDS011;48761;42.680;23.312;2022-10-26T02:34:08;11.20;;;5.68;;
62696;SDS011;48761;42.680;23.312;2022-10-26T02:36:38;12.48;;;5.43;;
62696;SDS011;48761;42.680;23.312;2022-10-26T02:39:08;13.73;;;6.07;;
62696;SDS011;48761;42.680;23.312;2022-10-26T02:41:36;13.77;;;5.75;;
62696;SDS011;48761;42.680;23.312;2022-10-26T02:46:35;11.48;;;5.75;;
62696;SDS011;48761;42.680;23.312;2022-10-26T02:49:01;12.05;;;5.35;;
62696;SDS011;48761;42.680;23.312;2022-10-26T02:51:38;12.27;;;5.85;;
62696;SDS011;48761;42.680;23.312;2022-10-26T02:54:31;10.88;;;5.70;;
62696;SDS011;48761;42.680;23.312;2022-10-26T02:57:25;12.57;;;5.80;;
62696;SDS011;48761;42.680;23.312;2022-10-26T02:59:57;12.55;;;5.70;;
62696;SDS011;48761;42.680;23.312;2022-10-26T03:02:24;14.27;;;6.15;;
62696;SDS011;48761;42.680;23.312;2022-10-26T03:04:51;10.45;;;5.82;;
62696;SDS011;48761;42.680;23.312;2022-10-26T03:07:21;12.63;;;5.78;;
62696;SDS011;48761;42.680;23.312;2022-10-26T03:09:48;13.43;;;6.53;;
62696;SDS011;48761;42.680;23.312;2022-10-26T03:12:14;14.20;;;6.68;;
62696;SDS011;48761;42.680;23.312;2022-10-26T03:14:40;15.57;;;7.32;;
62696;SDS011;48761;42.680;23.312;2022-10-26T03:17:06;14.15;;;7.32;;
62696;SDS011;48761;42.680;23.312;2022-10-26T03:19:32;14.35;;;7.07;;
62696;SDS011;48761;42.680;23.312;2022-10-26T03:21:58;13.73;;;7.13;;
62696;SDS011;48761;42.680;23.312;2022-10-26T03:24:24;17.27;;;7.13;;
62696;SDS011;48761;42.680;23.312;2022-10-26T03:26:50;15.63;;;7.60;;
62696;SDS011;48761;42.680;23.312;2022-10-26T03:29:16;17.73;;;7.50;;
62696;SDS011;48761;42.680;23.312;2022-10-26T03:31:41;13.85;;;7.18;;
62696;SDS011;48761;42.680;23.312;2022-10-26T03:34:07;18.45;;;7.70;;
62696;SDS011;48761;42.680;23.312;2022-10-26T03:36:33;13.02;;;7.35;;
62696;SDS011;48761;42.680;23.312;2022-10-26T03:38:59;15.40;;;7.43;;
62696;SDS011;48761;42.680;23.312;2022-10-26T03:41:25;19.38;;;7.45;;
62696;SDS011;48761;42.680;23.312;2022-10-26T03:43:51;14.70;;;7.97;;
62696;SDS011;48761;42.680;23.312;2022-10-26T03:46:17;15.82;;;8.10;;
62696;SDS011;48761;42.680;23.312;2022-10-26T03:48:43;14.95;;;7.40;;
62696;SDS011;48761;42.680;23.312;2022-10-26T03:51:09;12.50;;;7.95;;
62696;SDS011;48761;42.680;23.312;2022-10-26T03:53:35;17.80;;;8.07;;
62696;SDS011;48761;42.680;23.312;2022-10-26T03:56:01;18.25;;;7.63;;
62696;SDS011;48761;42.680;23.312;2022-10-26T03:58:27;12.18;;;7.50;;
62696;SDS011;48761;42.680;23.312;2022-10-26T04:00:53;13.52;;;7.95;;
62696;SDS011;48761;42.680;23.312;2022-10-26T04:03:19;17.67;;;7.55;;
62696;SDS011;48761;42.680;23.312;2022-10-26T04:05:44;15.75;;;7.70;;
62696;SDS011;48761;42.680;23.312;2022-10-26T04:08:10;15.60;;;7.75;;
62696;SDS011;48761;42.680;23.312;2022-10-26T04:10:36;19.55;;;8.23;;
62696;SDS011;48761;42.680;23.312;2022-10-26T04:13:02;18.52;;;8.43;;
62696;SDS011;48761;42.680;23.312;2022-10-26T04:15:28;19.42;;;7.75;;
62696;SDS011;48761;42.680;23.312;2022-10-26T04:17:58;18.95;;;8.07;;
62696;SDS011;48761;42.680;23.312;2022-10-26T04:20:26;17.02;;;8.50;;
62696;SDS011;48761;42.680;23.312;2022-10-26T04:22:56;14.43;;;7.32;;
62696;SDS011;48761;42.680;23.312;2022-10-26T04:25:25;14.13;;;8.15;;
62696;SDS011;48761;42.680;23.312;2022-10-26T04:27:52;14.15;;;7.28;;
62696;SDS011;48761;42.680;23.312;2022-10-26T04:30:18;21.23;;;7.55;;
62696;SDS011;48761;42.680;23.312;2022-10-26T04:32:44;21.92;;;8.25;;
62696;SDS011;48761;42.680;23.312;2022-10-26T04:35:10;15.75;;;7.65;;
62696;SDS011;48761;42.680;23.312;2022-10-26T04:37:36;13.88;;;7.03;;
62696;SDS011;48761;42.680;23.312;2022-10-26T04:40:02;12.65;;;6.95;;
62696;SDS011;48761;42.680;23.312;2022-10-26T04:42:28;16.80;;;7.28;;
62696;SDS011;48761;42.680;23.312;2022-10-26T04:44:54;12.20;;;7.10;;
62696;SDS011;48761;42.680;23.312;2022-10-26T04:47:20;17.20;;;8.15;;
62696;SDS011;48761;42.680;23.312;2022-10-26T04:49:46;14.15;;;7.28;;
62696;SDS011;48761;42.680;23.312;2022-10-26T04:52:12;14.68;;;7.38;;
62696;SDS011;48761;42.680;23.312;2022-10-26T04:54:38;19.95;;;7.47;;
62696;SDS011;48761;42.680;23.312;2022-10-26T04:57:04;19.20;;;7.80;;
62696;SDS011;48761;42.680;23.312;2022-10-26T04:59:30;18.73;;;8.68;;
62696;SDS011;48761;42.680;23.312;2022-10-26T05:01:56;12.50;;;7.35;;
62696;SDS011;48761;42.680;23.312;2022-10-26T05:04:21;17.13;;;8.20;;
62696;SDS011;48761;42.680;23.312;2022-10-26T05:06:47;14.90;;;6.82;;
62696;SDS011;48761;42.680;23.312;2022-10-26T05:09:13;16.73;;;7.68;;
62696;SDS011;48761;42.680;23.312;2022-10-26T05:11:39;14.20;;;7.28;;
62696;SDS011;48761;42.680;23.312;2022-10-26T05:14:05;15.85;;;7.00;;
62696;SDS011;48761;42.680;23.312;2022-10-26T05:16:31;20.63;;;7.43;;
62696;SDS011;48761;42.680;23.312;2022-10-26T05:18:57;12.13;;;6.88;;
62696;SDS011;48761;42.680;23.312;2022-10-26T05:21:23;14.38;;;7.40;;
62696;SDS011;48761;42.680;23.312;2022-10-26T05:23:49;20.60;;;7.55;;
62696;SDS011;48761;42.680;23.312;2022-10-26T05:26:16;17.42;;;7.55;;
62696;SDS011;48761;42.680;23.312;2022-10-26T05:28:42;21.20;;;7.72;;
62696;SDS011;48761;42.680;23.312;2022-10-26T05:31:08;14.65;;;7.47;;
62696;SDS011;48761;42.680;23.312;2022-10-26T05:33:33;15.10;;;8.98;;
62696;SDS011;48761;42.680;23.312;2022-10-26T05:35:59;14.52;;;8.23;;
62696;SDS011;48761;42.680;23.312;2022-10-26T05:38:25;16.15;;;7.32;;
62696;SDS011;48761;42.680;23.312;2022-10-26T05:40:52;14.48;;;7.22;;
62696;SDS011;48761;42.680;23.312;2022-10-26T05:43:19;16.85;;;8.10;;
62696;SDS011;48761;42.680;23.312;2022-10-26T05:45:46;16.10;;;7.60;;
62696;SDS011;48761;42.680;23.312;2022-10-26T05:48:14;12.48;;;7.25;;
62696;SDS011;48761;42.680;23.312;2022-10-26T05:50:40;24.55;;;10.07;;
62696;SDS011;48761;42.680;23.312;2022-10-26T05:53:06;10.63;;;6.80;;
62696;SDS011;48761;42.680;23.312;2022-10-26T05:55:32;18.98;;;8.73;;
62696;SDS011;48761;42.680;23.312;2022-10-26T05:57:58;19.35;;;7.82;;
62696;SDS011;48761;42.680;23.312;2022-10-26T06:00:25;15.15;;;7.28;;
62696;SDS011;48761;42.680;23.312;2022-10-26T06:05:39;16.15;;;7.38;;
62696;SDS011;48761;42.680;23.312;2022-10-26T06:08:15;15.48;;;6.97;;
62696;SDS011;48761;42.680;23.312;2022-10-26T06:10:41;17.40;;;7.38;;
62696;SDS011;48761;42.680;23.312;2022-10-26T06:13:07;13.85;;;7.40;;
62696;SDS011;48761;42.680;23.312;2022-10-26T06:15:35;42.95;;;9.10;;
62696;SDS011;48761;42.680;23.312;2022-10-26T06:18:19;17.48;;;8.23;;
62696;SDS011;48761;42.680;23.312;2022-10-26T06:21:03;15.50;;;7.88;;
62696;SDS011;48761;42.680;23.312;2022-10-26T06:23:38;61.63;;;32.58;;
62696;SDS011;48761;42.680;23.312;2022-10-26T06:29:09;33.50;;;16.80;;
62696;SDS011;48761;42.680;23.312;2022-10-26T06:31:37;16.55;;;7.78;;
62696;SDS011;48761;42.680;23.312;2022-10-26T06:34:03;24.70;;;8.45;;
62696;SDS011;48761;42.680;23.312;2022-10-26T06:36:29;17.25;;;7.38;;
62696;SDS011;48761;42.680;23.312;2022-10-26T06:41:21;13.38;;;7.47;;
62696;SDS011;48761;42.680;23.312;2022-10-26T06:43:48;11.60;;;6.65;;
62696;SDS011;48761;42.680;23.312;2022-10-26T06:52:14;12.05;;;7.10;;
62696;SDS011;48761;42.680;23.312;2022-10-26T06:57:14;10.98;;;6.38;;
62696;SDS011;48761;42.680;23.312;2022-10-26T06:59:43;15.15;;;6.55;;
62696;SDS011;48761;42.680;23.312;2022-10-26T07:02:13;12.57;;;6.15;;
62696;SDS011;48761;42.680;23.312;2022-10-26T07:04:40;15.77;;;6.30;;
62696;SDS011;48761;42.680;23.312;2022-10-26T07:07:07;9.20;;;6.07;;
62696;SDS011;48761;42.680;23.312;2022-10-26T07:09:36;14.52;;;6.22;;
62696;SDS011;48761;42.680;23.312;2022-10-26T07:12:01;10.43;;;5.32;;
62696;SDS011;48761;42.680;23.312;2022-10-26T07:14:27;12.65;;;5.70;;
62696;SDS011;48761;42.680;23.312;2022-10-26T07:16:53;8.70;;;5.60;;
62696;SDS011;48761;42.680;23.312;2022-10-26T07:19:19;10.88;;;5.10;;
62696;SDS011;48761;42.680;23.312;2022-10-26T07:21:45;10.60;;;5.35;;
62696;SDS011;48761;42.680;23.312;2022-10-26T07:24:11;14.00;;;5.93;;
62696;SDS011;48761;42.680;23.312;2022-10-26T07:26:37;10.73;;;5.32;;
62696;SDS011;48761;42.680;23.312;2022-10-26T07:29:03;16.08;;;5.72;;
62696;SDS011;48761;42.680;23.312;2022-10-26T07:31:29;16.95;;;6.53;;
62696;SDS011;48761;42.680;23.312;2022-10-26T07:33:55;20.83;;;8.43;;
62696;SDS011;48761;42.680;23.312;2022-10-26T07:36:21;16.55;;;8.93;;
62696;SDS011;48761;42.680;23.312;2022-10-26T07:38:50;13.43;;;7.03;;
62696;SDS011;48761;42.680;23.312;2022-10-26T07:41:16;11.77;;;6.57;;
62696;SDS011;48761;42.680;23.312;2022-10-26T07:43:43;13.52;;;6.28;;
62696;SDS011;48761;42.680;23.312;2022-10-26T07:46:08;13.00;;;7.07;;
62696;SDS011;48761;42.680;23.312;2022-10-26T07:48:34;11.40;;;7.00;;
62696;SDS011;48761;42.680;23.312;2022-10-26T07:51:00;16.60;;;7.32;;
62696;SDS011;48761;42.680;23.312;2022-10-26T07:53:26;10.43;;;5.93;;
62696;SDS011;48761;42.680;23.312;2022-10-26T07:55:54;16.40;;;7.18;;
62696;SDS011;48761;42.680;23.312;2022-10-26T07:58:21;13.48;;;6.90;;
62696;SDS011;48761;42.680;23.312;2022-10-26T08:00:47;13.13;;;5.75;;
62696;SDS011;48761;42.680;23.312;2022-10-26T08:03:13;11.95;;;6.45;;
62696;SDS011;48761;42.680;23.312;2022-10-26T08:05:38;13.75;;;7.25;;
62696;SDS011;48761;42.680;23.312;2022-10-26T08:08:04;14.13;;;6.55;;
62696;SDS011;48761;42.680;23.312;2022-10-26T08:10:30;12.85;;;6.90;;
62696;SDS011;48761;42.680;23.312;2022-10-26T08:12:56;12.70;;;5.68;;
62696;SDS011;48761;42.680;23.312;2022-10-26T08:15:22;11.35;;;6.00;;
62696;SDS011;48761;42.680;23.312;2022-10-26T08:17:48;9.15;;;5.82;;
62696;SDS011;48761;42.680;23.312;2022-10-26T08:20:14;8.95;;;5.30;;
62696;SDS011;48761;42.680;23.312;2022-10-26T08:22:40;11.07;;;5.65;;
62696;SDS011;48761;42.680;23.312;2022-10-26T08:25:06;10.48;;;5.15;;
62696;SDS011;48761;42.680;23.312;2022-10-26T08:27:32;9.60;;;5.00;;
62696;SDS011;48761;42.680;23.312;2022-10-26T08:29:58;10.32;;;5.63;;
62696;SDS011;48761;42.680;23.312;2022-10-26T08:32:23;11.45;;;5.25;;
62696;SDS011;48761;42.680;23.312;2022-10-26T08:34:49;10.55;;;5.40;;
62696;SDS011;48761;42.680;23.312;2022-10-26T08:37:15;12.65;;;5.25;;
62696;SDS011;48761;42.680;23.312;2022-10-26T08:39:41;14.85;;;6.00;;
62696;SDS011;48761;42.680;23.312;2022-10-26T08:42:16;12.90;;;6.40;;
62696;SDS011;48761;42.680;23.312;2022-10-26T08:44:48;7.93;;;4.28;;
62696;SDS011;48761;42.680;23.312;2022-10-26T08:47:21;11.05;;;4.22;;
62696;SDS011;48761;42.680;23.312;2022-10-26T08:52:25;14.40;;;4.57;;
62696;SDS011;48761;42.680;23.312;2022-10-26T08:55:08;10.27;;;3.70;;
62696;SDS011;48761;42.680;23.312;2022-10-26T08:57:40;11.38;;;4.53;;
62696;SDS011;48761;42.680;23.312;2022-10-26T09:00:40;7.97;;;5.40;;
62696;SDS011;48761;42.680;23.312;2022-10-26T09:02:58;7.20;;;3.63;;
62696;SDS011;48761;42.680;23.312;2022-10-26T09:05:31;10.73;;;4.22;;
62696;SDS011;48761;42.680;23.312;2022-10-26T09:08:27;12.20;;;4.90;;
62696;SDS011;48761;42.680;23.312;2022-10-26T09:11:48;11.15;;;5.78;;
62696;SDS011;48761;42.680;23.312;2022-10-26T09:22:08;21.83;;;5.80;;
62696;SDS011;48761;42.680;23.312;2022-10-26T09:24:46;11.77;;;4.10;;
62696;SDS011;48761;42.680;23.312;2022-10-26T09:27:20;7.72;;;3.55;;
62696;SDS011;48761;42.680;23.312;2022-10-26T09:29:51;12.25;;;3.92;;
62696;SDS011;48761;42.680;23.312;2022-10-26T09:32:20;10.27;;;4.75;;
62696;SDS011;48761;42.680;23.312;2022-10-26T09:34:54;4.85;;;3.15;;
62696;SDS011;48761;42.680;23.312;2022-10-26T09:37:24;6.25;;;3.72;;
62696;SDS011;48761;42.680;23.312;2022-10-26T09:40:39;7.00;;;3.65;;
62696;SDS011;48761;42.680;23.312;2022-10-26T09:42:53;8.00;;;3.55;;
62696;SDS011;48761;42.680;23.312;2022-10-26T09:45:31;6.32;;;2.53;;
62696;SDS011;48761;42.680;23.312;2022-10-26T09:48:21;9.65;;;3.70;;
62696;SDS011;48761;42.680;23.312;2022-10-26T09:50:59;5.57;;;2.67;;
62696;SDS011;48761;42.680;23.312;2022-10-26T09:53:26;7.82;;;2.80;;
62696;SDS011;48761;42.680;23.312;2022-10-26T09:56:14;5.00;;;2.63;;
62696;SDS011;48761;42.680;23.312;2022-10-26T09:58:43;4.63;;;2.55;;
62696;SDS011;48761;42.680;23.312;2022-10-26T10:01:26;5.25;;;2.70;;
62696;SDS011;48761;42.680;23.312;2022-10-26T10:06:40;6.05;;;3.00;;
62696;SDS011;48761;42.680;23.312;2022-10-26T10:11:44;13.00;;;5.25;;
62696;SDS011;48761;42.680;23.312;2022-10-26T10:14:15;6.72;;;2.40;;
62696;SDS011;48761;42.680;23.312;2022-10-26T10:16:48;7.25;;;2.97;;
62696;SDS011;48761;42.680;23.312;2022-10-26T10:19:22;7.35;;;2.97;;
62696;SDS011;48761;42.680;23.312;2022-10-26T10:21:51;8.95;;;3.28;;
62696;SDS011;48761;42.680;23.312;2022-10-26T10:27:03;10.48;;;4.00;;
62696;SDS011;48761;42.680;23.312;2022-10-26T10:29:47;7.32;;;2.50;;
62696;SDS011;48761;42.680;23.312;2022-10-26T10:32:15;6.65;;;2.78;;
62696;SDS011;48761;42.680;23.312;2022-10-26T10:34:52;6.32;;;2.70;;
62696;SDS011;48761;42.680;23.312;2022-10-26T10:39:54;12.15;;;4.43;;
62696;SDS011;48761;42.680;23.312;2022-10-26T10:42:25;9.52;;;2.85;;
62696;SDS011;48761;42.680;23.312;2022-10-26T10:44:56;8.20;;;2.90;;
62696;SDS011;48761;42.680;23.312;2022-10-26T10:47:26;7.82;;;3.88;;
62696;SDS011;48761;42.680;23.312;2022-10-26T10:49:56;7.45;;;3.22;;
62696;SDS011;48761;42.680;23.312;2022-10-26T10:52:34;8.65;;;3.45;;
62696;SDS011;48761;42.680;23.312;2022-10-26T10:55:13;7.88;;;3.83;;
62696;SDS011;48761;42.680;23.312;2022-10-26T10:57:51;8.80;;;4.05;;
62696;SDS011;48761;42.680;23.312;2022-10-26T11:00:40;8.82;;;2.60;;
62696;SDS011;48761;42.680;23.312;2022-10-26T11:08:41;6.38;;;2.65;;
62696;SDS011;48761;42.680;23.312;2022-10-26T11:11:19;6.78;;;2.90;;
62696;SDS011;48761;42.680;23.312;2022-10-26T11:16:23;7.78;;;3.25;;
62696;SDS011;48761;42.680;23.312;2022-10-26T11:19:01;6.70;;;2.13;;
62696;SDS011;48761;42.680;23.312;2022-10-26T11:21:40;5.78;;;2.40;;
62696;SDS011;48761;42.680;23.312;2022-10-26T11:32:20;9.55;;;3.00;;
62696;SDS011;48761;42.680;23.312;2022-10-26T11:34:52;4.10;;;1.95;;
62696;SDS011;48761;42.680;23.312;2022-10-26T11:37:36;5.85;;;2.22;;
62696;SDS011;48761;42.680;23.312;2022-10-26T11:46:04;3.33;;;1.90;;
62696;SDS011;48761;42.680;23.312;2022-10-26T11:53:53;7.18;;;1.67;;
62696;SDS011;48761;42.680;23.312;2022-10-26T11:56:25;6.45;;;1.42;;
62696;SDS011;48761;42.680;23.312;2022-10-26T11:58:56;8.13;;;2.00;;
62696;SDS011;48761;42.680;23.312;2022-10-26T12:01:22;4.82;;;1.63;;
62696;SDS011;48761;42.680;23.312;2022-10-26T12:03:49;2.65;;;1.40;;
62696;SDS011;48761;42.680;23.312;2022-10-26T12:06:24;5.18;;;1.60;;
62696;SDS011;48761;42.680;23.312;2022-10-26T12:09:09;6.57;;;1.98;;
62696;SDS011;48761;42.680;23.312;2022-10-26T12:14:20;3.13;;;1.30;;
62696;SDS011;48761;42.680;23.312;2022-10-26T12:19:50;2.85;;;1.40;;
62696;SDS011;48761;42.680;23.312;2022-10-26T12:22:27;11.18;;;1.83;;
62696;SDS011;48761;42.680;23.312;2022-10-26T12:25:05;3.95;;;1.00;;
62696;SDS011;48761;42.680;23.312;2022-10-26T12:30:13;5.45;;;1.27;;
62696;SDS011;48761;42.680;23.312;2022-10-26T12:33:25;2.70;;;0.98;;
62696;SDS011;48761;42.680;23.312;2022-10-26T12:35:54;5.82;;;1.83;;
62696;SDS011;48761;42.680;23.312;2022-10-26T12:48:47;4.07;;;1.40;;
62696;SDS011;48761;42.680;23.312;2022-10-26T12:51:38;3.13;;;1.75;;
62696;SDS011;48761;42.680;23.312;2022-10-26T12:56:30;3.53;;;2.20;;
62696;SDS011;48761;42.680;23.312;2022-10-26T12:59:10;5.57;;;1.98;;
62696;SDS011;48761;42.680;23.312;2022-10-26T13:01:47;4.30;;;1.38;;
62696;SDS011;48761;42.680;23.312;2022-10-26T13:07:25;4.85;;;1.40;;
62696;SDS011;48761;42.680;23.312;2022-10-26T13:12:35;2.58;;;1.00;;
62696;SDS011;48761;42.680;23.312;2022-10-26T13:20:24;7.82;;;1.60;;
62696;SDS011;48761;42.680;23.312;2022-10-26T13:22:50;7.30;;;1.85;;
62696;SDS011;48761;42.680;23.312;2022-10-26T13:25:26;8.77;;;1.83;;
62696;SDS011;48761;42.680;23.312;2022-10-26T13:32:57;7.45;;;1.70;;
62696;SDS011;48761;42.680;23.312;2022-10-26T13:35:25;5.82;;;2.08;;
62696;SDS011;48761;42.680;23.312;2022-10-26T13:37:54;4.78;;;1.70;;
62696;SDS011;48761;42.680;23.312;2022-10-26T13:40:22;5.80;;;2.60;;
62696;SDS011;48761;42.680;23.312;2022-10-26T13:42:54;56.10;;;6.93;;
62696;SDS011;48761;42.680;23.312;2022-10-26T13:45:37;2.42;;;1.60;;
62696;SDS011;48761;42.680;23.312;2022-10-26T13:48:28;9.52;;;1.80;;
62696;SDS011;48761;42.680;23.312;2022-10-26T13:51:19;8.55;;;2.10;;
62696;SDS011;48761;42.680;23.312;2022-10-26T13:53:50;3.65;;;1.70;;
62696;SDS011;48761;42.680;23.312;2022-10-26T14:01:26;2.85;;;1.10;;
62696;SDS011;48761;42.680;23.312;2022-10-26T14:03:53;3.15;;;1.10;;
62696;SDS011;48761;42.680;23.312;2022-10-26T14:06:32;2.92;;;1.27;;
62696;SDS011;48761;42.680;23.312;2022-10-26T14:09:03;3.97;;;1.65;;
62696;SDS011;48761;42.680;23.312;2022-10-26T14:11:35;6.45;;;2.60;;
62696;SDS011;48761;42.680;23.312;2022-10-26T14:14:14;5.97;;;2.03;;
62696;SDS011;48761;42.680;23.312;2022-10-26T14:16:45;6.80;;;1.85;;
62696;SDS011;48761;42.680;23.312;2022-10-26T14:19:23;7.25;;;1.65;;
62696;SDS011;48761;42.680;23.312;2022-10-26T14:21:52;5.20;;;1.98;;
62696;SDS011;48761;42.680;23.312;2022-10-26T14:24:23;8.13;;;2.03;;
62696;SDS011;48761;42.680;23.312;2022-10-26T14:26:55;10.63;;;2.58;;
62696;SDS011;48761;42.680;23.312;2022-10-26T14:29:22;5.50;;;2.53;;
62696;SDS011;48761;42.680;23.312;2022-10-26T14:31:50;3.42;;;2.28;;
62696;SDS011;48761;42.680;23.312;2022-10-26T14:34:17;7.20;;;2.47;;
62696;SDS011;48761;42.680;23.312;2022-10-26T14:36:48;4.85;;;2.13;;
62696;SDS011;48761;42.680;23.312;2022-10-26T14:39:29;5.03;;;2.92;;
62696;SDS011;48761;42.680;23.312;2022-10-26T14:42:00;4.35;;;2.45;;
62696;SDS011;48761;42.680;23.312;2022-10-26T14:44:30;4.00;;;2.10;;
62696;SDS011;48761;42.680;23.312;2022-10-26T14:46:56;5.22;;;2.15;;
62696;SDS011;48761;42.680;23.312;2022-10-26T14:49:26;4.95;;;2.30;;
62696;SDS011;48761;42.680;23.312;2022-10-26T14:51:59;7.30;;;2.58;;
62696;SDS011;48761;42.680;23.312;2022-10-26T14:54:30;5.85;;;2.88;;
62696;SDS011;48761;42.680;23.312;2022-10-26T14:56:56;8.68;;;3.30;;
62696;SDS011;48761;42.680;23.312;2022-10-26T14:59:31;8.68;;;3.33;;
62696;SDS011;48761;42.680;23.312;2022-10-26T15:02:10;9.50;;;4.10;;
62696;SDS011;48761;42.680;23.312;2022-10-26T15:07:35;9.35;;;2.90;;
62696;SDS011;48761;42.680;23.312;2022-10-26T15:10:03;8.23;;;2.40;;
62696;SDS011;48761;42.680;23.312;2022-10-26T15:15:08;12.73;;;3.88;;
62696;SDS011;48761;42.680;23.312;2022-10-26T15:17:55;10.93;;;3.65;;
62696;SDS011;48761;42.680;23.312;2022-10-26T15:20:23;5.18;;;2.85;;
62696;SDS011;48761;42.680;23.312;2022-10-26T15:25:28;7.90;;;3.58;;
62696;SDS011;48761;42.680;23.312;2022-10-26T15:28:10;6.85;;;3.88;;
62696;SDS011;48761;42.680;23.312;2022-10-26T15:33:35;15.18;;;3.33;;
62696;SDS011;48761;42.680;23.312;2022-10-26T15:38:45;5.30;;;3.00;;
62696;SDS011;48761;42.680;23.312;2022-10-26T15:41:17;9.68;;;2.88;;
62696;SDS011;48761;42.680;23.312;2022-10-26T15:43:53;8.32;;;3.47;;
62696;SDS011;48761;42.680;23.312;2022-10-26T15:46:22;10.68;;;3.47;;
62696;SDS011;48761;42.680;23.312;2022-10-26T15:48:53;14.80;;;3.60;;
62696;SDS011;48761;42.680;23.312;2022-10-26T15:51:21;12.88;;;4.00;;
62696;SDS011;48761;42.680;23.312;2022-10-26T15:53:47;11.13;;;3.28;;
62696;SDS011;48761;42.680;23.312;2022-10-26T15:56:15;7.10;;;3.13;;
62696;SDS011;48761;42.680;23.312;2022-10-26T15:58:47;7.05;;;3.47;;
62696;SDS011;48761;42.680;23.312;2022-10-26T16:01:18;14.82;;;3.80;;
62696;SDS011;48761;42.680;23.312;2022-10-26T16:03:46;8.48;;;3.20;;
62696;SDS011;48761;42.680;23.312;2022-10-26T16:06:14;8.88;;;3.78;;
62696;SDS011;48761;42.680;23.312;2022-10-26T16:08:51;8.40;;;3.42;;
62696;SDS011;48761;42.680;23.312;2022-10-26T16:11:21;8.30;;;3.60;;
62696;SDS011;48761;42.680;23.312;2022-10-26T16:13:47;7.70;;;2.75;;
62696;SDS011;48761;42.680;23.312;2022-10-26T16:16:17;7.85;;;3.28;;
62696;SDS011;48761;42.680;23.312;2022-10-26T16:18:44;9.23;;;2.78;;
62696;SDS011;48761;42.680;23.312;2022-10-26T16:21:11;6.00;;;2.85;;
62696;SDS011;48761;42.680;23.312;2022-10-26T16:23:38;8.38;;;3.22;;
62696;SDS011;48761;42.680;23.312;2022-10-26T16:26:05;7.43;;;3.03;;
62696;SDS011;48761;42.680;23.312;2022-10-26T16:28:32;13.30;;;3.83;;
62696;SDS011;48761;42.680;23.312;2022-10-26T16:31:06;8.70;;;4.25;;
62696;SDS011;48761;42.680;23.312;2022-10-26T16:33:35;9.80;;;4.00;;
62696;SDS011;48761;42.680;23.312;2022-10-26T16:36:03;9.00;;;3.70;;
62696;SDS011;48761;42.680;23.312;2022-10-26T16:38:30;8.77;;;3.55;;
62696;SDS011;48761;42.680;23.312;2022-10-26T16:41:04;6.60;;;3.83;;
62696;SDS011;48761;42.680;23.312;2022-10-26T16:43:35;11.88;;;4.53;;
62696;SDS011;48761;42.680;23.312;2022-10-26T16:46:04;13.38;;;5.55;;
62696;SDS011;48761;42.680;23.312;2022-10-26T16:48:38;10.77;;;4.47;;
62696;SDS011;48761;42.680;23.312;2022-10-26T16:51:15;8.57;;;4.82;;
62696;SDS011;48761;42.680;23.312;2022-10-26T16:53:42;10.75;;;5.75;;
62696;SDS011;48761;42.680;23.312;2022-10-26T16:56:11;12.63;;;6.40;;
62696;SDS011;48761;42.680;23.312;2022-10-26T16:58:39;11.63;;;5.13;;
62696;SDS011;48761;42.680;23.312;2022-10-26T17:01:06;15.52;;;5.65;;
62696;SDS011;48761;42.680;23.312;2022-10-26T17:03:34;12.50;;;5.93;;
62696;SDS011;48761;42.680;23.312;2022-10-26T17:06:01;15.18;;;5.70;;
62696;SDS011;48761;42.680;23.312;2022-10-26T17:08:29;20.50;;;6.07;;
62696;SDS011;48761;42.680;23.312;2022-10-26T17:13:54;13.68;;;6.22;;
62696;SDS011;48761;42.680;23.312;2022-10-26T17:16:21;18.63;;;6.47;;
62696;SDS011;48761;42.680;23.312;2022-10-26T17:18:48;16.08;;;5.82;;